Time;durP1;ratioP1;P1;durP2;ratioP2;P2;SDS_P1;SDS_P2;PMS_P1;PMS_P2;Temp;Humidity;BMP_temperature;BMP_pressure;BME280_temperature;BME280_humidity;BME280_pressure;Samples;Min_cycle;Max_cycle;Signal;HPM_P1;HPM_P2
2023/05/13 00:02:13;;;;;;;2.37;2.20;;;;;;;13.56;84.57;98668.97;5000676;28;102694;-74
2023/05/13 00:04:41;;;;;;;4.30;3.10;;;;;;;13.47;84.10;98664.44;4987288;28;102657;-74
2023/05/13 00:07:09;;;;;;;3.37;2.87;;;;;;;13.19;86.25;98661.41;5001747;28;111581;-74
2023/05/13 00:09:37;;;;;;;3.20;2.90;;;;;;;13.24;86.38;98661.91;4994443;28;103117;-74
2023/05/13 00:12:05;;;;;;;3.27;3.03;;;;;;;13.18;86.44;98664.22;5002958;28;102660;-74
2023/05/13 00:14:33;;;;;;;2.67;2.47;;;;;;;12.94;88.39;98656.44;5005771;28;102794;-73
2023/05/13 00:17:03;;;;;;;3.47;3.13;;;;;;;12.90;87.67;98654.19;5002004;28;111401;-73
2023/05/13 00:19:32;;;;;;;3.20;2.90;;;;;;;12.98;87.13;98668.50;4996452;28;103687;-73
2023/05/13 00:22:00;;;;;;;3.40;3.10;;;;;;;12.60;88.16;98674.25;4992955;28;103154;-74
2023/05/13 00:24:28;;;;;;;4.00;3.20;;;;;;;12.81;88.39;98676.97;5005334;28;102955;-74
2023/05/13 00:26:56;;;;;;;4.30;3.00;;;;;;;12.86;87.76;98669.50;4995874;28;105768;-74
2023/05/13 00:29:24;;;;;;;3.37;2.87;;;;;;;12.95;86.42;98663.44;5000454;28;108624;-73
2023/05/13 00:31:52;;;;;;;3.30;2.70;;;;;;;12.78;86.75;98669.28;5001829;28;102737;-74
2023/05/13 00:34:19;;;;;;;2.90;2.70;;;;;;;12.49;88.56;98665.50;4990717;28;102922;-73
2023/05/13 00:36:51;;;;;;;3.30;2.90;;;;;;;12.48;88.35;98666.47;5004468;28;103428;-74
2023/05/13 00:39:19;;;;;;;4.83;3.27;;;;;;;12.65;87.90;98671.25;5003063;28;103146;-73
2023/05/13 00:41:47;;;;;;;3.40;3.10;;;;;;;12.59;87.88;98671.75;4992823;28;102627;-74
2023/05/13 00:44:14;;;;;;;3.20;3.00;;;;;;;12.61;88.37;98675.09;4985720;28;105428;-73
2023/05/13 00:46:42;;;;;;;4.50;3.00;;;;;;;12.49;88.87;98671.63;4987373;28;103549;-74
2023/05/13 00:49:13;;;;;;;3.07;2.87;;;;;;;12.46;88.88;98674.53;5009211;28;104800;-73
2023/05/13 00:51:41;;;;;;;3.43;3.13;;;;;;;12.34;89.96;98677.31;4992563;28;104217;-74
2023/05/13 00:54:10;;;;;;;3.20;2.90;;;;;;;12.20;89.81;98666.03;4994435;28;103843;-74
2023/05/13 00:56:38;;;;;;;3.37;3.07;;;;;;;12.09;90.16;98663.41;4995145;28;103086;-73
2023/05/13 00:59:06;;;;;;;4.43;2.80;;;;;;;12.18;90.24;98667.94;4989719;28;112445;-74
2023/05/13 01:01:51;;;;;;;6.20;3.40;;;;;;;12.03;90.38;98671.81;4994393;28;102675;-73
2023/05/13 01:04:30;;;;;;;3.60;3.30;;;;;;;12.05;89.50;98672.53;5005608;28;102541;-73
2023/05/13 01:07:08;;;;;;;3.43;3.13;;;;;;;12.58;88.14;98670.91;4993629;28;103384;-73
2023/05/13 01:09:54;;;;;;;4.80;3.17;;;;;;;12.44;86.43;98670.31;4994560;28;103560;-74
2023/05/13 01:12:29;;;;;;;3.30;3.00;;;;;;;12.44;86.32;98667.66;4990505;28;102717;-73
2023/05/13 01:15:02;;;;;;;2.77;2.57;;;;;;;12.55;86.14;98676.44;4990306;28;102804;-74
2023/05/13 01:17:37;;;;;;;5.20;3.00;;;;;;;12.48;85.62;98664.66;4981445;28;106273;-73
2023/05/13 01:20:08;;;;;;;3.00;2.30;;;;;;;12.65;85.50;98676.56;4995481;28;103400;-74
2023/05/13 01:22:39;;;;;;;3.40;3.10;;;;;;;12.71;84.08;98670.75;5003803;28;102755;-74
2023/05/13 01:25:08;;;;;;;3.07;2.77;;;;;;;12.52;85.39;98681.16;5004141;28;103075;-70
2023/05/13 01:27:36;;;;;;;3.57;3.27;;;;;;;12.56;84.05;98674.63;5004565;28;103402;-70
2023/05/13 01:30:08;;;;;;;3.80;2.80;;;;;;;12.70;83.47;98679.66;4982970;28;104551;-70
2023/05/13 01:32:37;;;;;;;5.63;2.80;;;;;;;12.62;83.13;98676.78;4997254;28;102629;-70
2023/05/13 01:35:07;;;;;;;3.27;2.83;;;;;;;12.53;83.65;98674.88;5000334;28;102832;-70
2023/05/13 01:37:41;;;;;;;2.97;2.77;;;;;;;12.38;83.83;98684.06;4992568;28;103187;-70
2023/05/13 01:40:10;;;;;;;3.37;3.03;;;;;;;11.91;85.49;98671.91;4994821;28;105404;-70
2023/05/13 01:42:58;;;;;;;4.73;3.10;;;;;;;11.84;86.92;98679.50;5004565;28;102798;-70
2023/05/13 01:45:27;;;;;;;3.43;3.13;;;;;;;11.59;88.30;98675.22;4988112;28;102857;-70
2023/05/13 01:47:56;;;;;;;4.33;3.10;;;;;;;11.41;88.80;98681.94;5009867;28;112456;-70
2023/05/13 01:50:26;;;;;;;3.63;3.33;;;;;;;11.19;90.74;98684.50;4996847;28;103169;-70
2023/05/13 01:52:56;;;;;;;3.60;3.30;;;;;;;10.92;91.81;98686.53;4994437;28;102819;-70
2023/05/13 01:55:24;;;;;;;5.83;3.20;;;;;;;11.13;91.53;98682.31;4992917;28;102806;-70
2023/05/13 01:57:52;;;;;;;3.83;3.53;;;;;;;11.42;89.77;98685.41;4986378;28;105734;-70
2023/05/13 02:00:20;;;;;;;3.93;3.03;;;;;;;11.45;89.18;98670.13;4995167;28;103197;-70
2023/05/13 02:02:49;;;;;;;3.23;2.93;;;;;;;11.45;88.80;98680.72;4995202;28;102668;-70
2023/05/13 02:05:18;;;;;;;5.10;3.20;;;;;;;11.58;87.12;98672.69;4996319;28;102648;-70
2023/05/13 02:07:46;;;;;;;2.80;2.60;;;;;;;11.58;88.31;98675.34;4999904;28;104324;-70
2023/05/13 02:10:15;;;;;;;3.30;2.93;;;;;;;11.40;88.29;98684.66;4992630;28;103333;-70
2023/05/13 02:12:43;;;;;;;4.40;3.33;;;;;;;11.25;89.55;98691.97;4995247;28;102751;-70
2023/05/13 02:15:12;;;;;;;3.63;3.17;;;;;;;11.23;89.86;98699.16;5010795;28;102817;-70
2023/05/13 02:17:41;;;;;;;3.47;2.90;;;;;;;11.38;89.13;98692.72;4995105;28;111627;-70
2023/05/13 02:20:10;;;;;;;3.63;3.10;;;;;;;11.49;88.51;98694.56;4999580;28;103273;-70
2023/05/13 02:22:38;;;;;;;3.37;2.53;;;;;;;11.54;88.42;98697.69;4998533;28;102770;-70
2023/05/13 02:25:08;;;;;;;3.67;3.27;;;;;;;11.33;88.32;98689.59;5008068;28;102858;-70
2023/05/13 02:27:39;;;;;;;3.30;3.00;;;;;;;11.28;89.20;98686.47;4990727;28;103239;-70
2023/05/13 02:30:08;;;;;;;5.57;3.00;;;;;;;11.46;88.41;98692.16;5004788;28;103170;-70
2023/05/13 02:32:41;;;;;;;2.90;2.70;;;;;;;11.73;87.51;98687.44;4985790;28;102884;-70
2023/05/13 02:35:10;;;;;;;4.23;2.97;;;;;;;11.74;87.11;98694.41;5003775;28;102867;-70
2023/05/13 02:37:38;;;;;;;3.40;3.10;;;;;;;11.91;86.21;98696.59;4996619;28;103549;-70
2023/05/13 02:40:07;;;;;;;4.90;2.90;;;;;;;11.80;85.78;98688.63;4998459;28;103030;-70
2023/05/13 02:42:35;;;;;;;3.00;2.23;;;;;;;12.07;85.46;98691.78;4996325;28;102607;-70
2023/05/13 02:45:05;;;;;;;2.83;2.63;;;;;;;12.25;84.24;98694.78;4978727;28;102681;-70
2023/05/13 02:47:35;;;;;;;2.50;2.30;;;;;;;12.37;84.19;98692.97;5001410;28;105108;-70
2023/05/13 02:50:06;;;;;;;3.37;2.93;;;;;;;12.40;84.28;98695.38;4998493;28;104668;-70
2023/05/13 02:52:38;;;;;;;3.07;2.67;;;;;;;12.53;83.62;98706.69;4993552;28;102590;-70
2023/05/13 02:55:08;;;;;;;3.57;2.83;;;;;;;12.07;84.41;98701.56;4998301;28;102943;-70
2023/05/13 02:57:37;;;;;;;3.60;3.17;;;;;;;11.83;86.55;98698.16;4993220;28;104531;-71
2023/05/13 03:00:11;;;;;;;3.77;2.93;;;;;;;12.07;86.51;98694.44;4995473;28;103705;-71
2023/05/13 03:02:39;;;;;;;4.47;3.20;;;;;;;12.05;85.57;98693.72;5002414;28;102701;-70
2023/05/13 03:05:08;;;;;;;2.60;2.40;;;;;;;12.13;84.82;98696.59;5018225;28;102581;-70
2023/05/13 03:07:36;;;;;;;2.80;2.60;;;;;;;12.19;84.65;98684.69;5007291;28;103580;-70
2023/05/13 03:10:05;;;;;;;2.60;2.40;;;;;;;12.28;84.07;98693.69;4990691;28;112565;-70
2023/05/13 03:12:33;;;;;;;3.40;3.10;;;;;;;11.98;83.35;98691.66;5011493;28;103089;-70
2023/05/13 03:15:03;;;;;;;2.63;2.40;;;;;;;11.98;85.06;98689.88;4990329;28;102894;-70
2023/05/13 03:17:32;;;;;;;2.57;2.37;;;;;;;12.23;84.12;98690.59;4992012;28;109150;-70
2023/05/13 03:20:03;;;;;;;3.70;3.30;;;;;;;12.08;83.74;98698.78;4992286;28;103156;-70
2023/05/13 03:22:32;;;;;;;3.27;2.80;;;;;;;12.14;82.99;98700.94;5006207;28;102540;-70
2023/05/13 03:25:00;;;;;;;3.30;2.73;;;;;;;11.84;84.48;98695.41;4996384;28;102779;-70
2023/05/13 03:27:35;;;;;;;3.27;2.83;;;;;;;11.48;86.27;98701.66;4990527;28;103366;-70
2023/05/13 03:30:03;;;;;;;3.47;3.00;;;;;;;11.33;86.67;98705.47;4996258;28;105498;-70
2023/05/13 03:32:33;;;;;;;3.40;3.10;;;;;;;11.27;86.74;98698.00;5006273;28;102685;-70
2023/05/13 03:35:01;;;;;;;3.30;3.10;;;;;;;11.07;88.38;98695.97;4997041;28;102646;-70
2023/05/13 03:37:30;;;;;;;2.90;2.70;;;;;;;10.91;89.45;98704.22;5003566;28;104406;-70
2023/05/13 03:39:58;;;;;;;3.10;2.80;;;;;;;10.88;90.05;98699.16;4991607;28;103077;-70
2023/05/13 03:42:26;;;;;;;3.43;3.13;;;;;;;10.71;91.58;98699.53;4995581;28;103071;-70
2023/05/13 03:44:56;;;;;;;3.60;3.30;;;;;;;10.87;91.07;98704.53;5007264;28;103731;-70
2023/05/13 03:47:24;;;;;;;4.67;3.50;;;;;;;10.93;89.67;98704.94;4993530;28;103554;-70
2023/05/13 03:49:59;;;;;;;3.47;3.17;;;;;;;11.07;89.45;98704.75;4978726;28;106158;-70
2023/05/13 03:52:26;;;;;;;3.40;3.10;;;;;;;11.22;88.42;98704.59;4990838;28;102712;-70
2023/05/13 03:54:54;;;;;;;3.33;3.00;;;;;;;11.31;88.00;98706.53;5001492;28;102766;-72
2023/05/13 03:57:22;;;;;;;3.63;2.73;;;;;;;11.60;86.76;98708.66;4996672;28;103546;-72
2023/05/13 03:59:52;;;;;;;4.20;2.87;;;;;;;11.84;85.45;98711.28;4986360;28;104124;-72
2023/05/13 04:02:20;;;;;;;2.67;2.40;;;;;;;12.17;83.97;98713.94;5007327;28;103016;-71
2023/05/13 04:04:51;;;;;;;3.80;3.43;;;;;;;12.20;82.46;98719.00;4987436;28;102781;-72
2023/05/13 04:07:20;;;;;;;3.40;3.10;;;;;;;12.16;82.73;98712.25;5004721;28;103558;-72
2023/05/13 04:09:48;;;;;;;4.27;3.40;;;;;;;11.64;83.82;98718.06;5004262;28;104194;-72
2023/05/13 04:12:17;;;;;;;5.07;2.97;;;;;;;12.02;83.13;98717.78;5004770;28;102996;-72
2023/05/13 04:14:45;;;;;;;3.07;2.83;;;;;;;12.11;82.66;98718.88;5002756;28;102883;-72
2023/05/13 04:17:13;;;;;;;3.13;2.93;;;;;;;11.84;82.60;98724.50;5000681;28;103270;-73
2023/05/13 04:19:41;;;;;;;3.77;3.43;;;;;;;12.00;82.99;98717.06;4969941;28;107572;-72
2023/05/13 04:22:09;;;;;;;3.53;2.80;;;;;;;12.30;81.67;98731.50;4988327;28;102669;-73
2023/05/13 04:24:38;;;;;;;3.30;2.93;;;;;;;12.26;82.03;98719.47;4969578;28;103869;-74
2023/05/13 04:27:06;;;;;;;3.23;2.90;;;;;;;12.24;80.93;98729.34;4993109;28;103227;-71
2023/05/13 04:29:34;;;;;;;3.57;3.27;;;;;;;12.33;81.50;98732.09;5005955;28;102925;-71
2023/05/13 04:32:02;;;;;;;4.37;3.10;;;;;;;11.95;83.30;98727.19;5003266;28;102624;-70
2023/05/13 04:34:30;;;;;;;3.73;3.40;;;;;;;11.82;83.31;98739.66;5007244;28;102751;-71
2023/05/13 04:36:58;;;;;;;3.33;2.80;;;;;;;11.56;84.96;98738.13;4995724;28;103306;-72
2023/05/13 04:39:26;;;;;;;3.73;3.43;;;;;;;11.61;84.82;98741.25;4986051;28;103586;-76
2023/05/13 04:41:55;;;;;;;3.83;3.40;;;;;;;11.68;84.17;98739.81;4992608;28;102715;-76
2023/05/13 04:44:24;;;;;;;3.43;3.13;;;;;;;11.80;84.16;98744.22;4996612;28;102748;-75
2023/05/13 04:46:52;;;;;;;4.63;3.70;;;;;;;11.67;84.00;98740.81;5005397;28;103568;-77
2023/05/13 04:49:19;;;;;;;4.77;2.90;;;;;;;11.55;83.74;98742.56;4995200;28;112750;-77
2023/05/13 04:51:48;;;;;;;3.40;3.10;;;;;;;12.01;82.69;98739.91;5010345;28;102757;-73
2023/05/13 04:54:17;;;;;;;4.43;3.27;;;;;;;11.70;84.10;98751.19;4965847;28;102765;-72
2023/05/13 04:56:45;;;;;;;4.30;3.20;;;;;;;11.97;83.36;98751.72;4984012;28;106195;-72
2023/05/13 04:59:14;;;;;;;3.43;2.93;;;;;;;11.91;82.19;98746.03;4974465;28;118353;-71
2023/05/13 05:01:42;;;;;;;4.97;3.10;;;;;;;11.89;82.95;98754.13;4987727;28;103001;-71
2023/05/13 05:04:11;;;;;;;6.27;3.20;;;;;;;11.84;82.51;98750.97;4975694;28;102795;-70
2023/05/13 05:06:40;;;;;;;3.43;3.13;;;;;;;11.93;83.05;98747.59;4980611;28;103627;-70
2023/05/13 05:09:08;;;;;;;3.33;3.03;;;;;;;12.17;81.47;98751.03;5003969;28;112664;-71
2023/05/13 05:11:36;;;;;;;3.40;2.90;;;;;;;12.17;81.16;98756.31;4987819;28;102708;-71
2023/05/13 05:14:04;;;;;;;3.60;3.27;;;;;;;12.12;81.84;98758.50;4996200;28;102821;-71
2023/05/13 05:16:33;;;;;;;3.30;3.00;;;;;;;12.54;80.88;98754.28;5010281;28;103318;-70
2023/05/13 05:19:01;;;;;;;3.17;2.87;;;;;;;12.75;79.54;98759.66;5009794;28;103381;-71
2023/05/13 05:21:30;;;;;;;5.23;3.20;;;;;;;12.72;78.61;98758.09;4991586;28;102898;-71
2023/05/13 05:24:00;;;;;;;4.53;3.40;;;;;;;12.39;80.38;98759.94;4993170;28;103203;-71
2023/05/13 05:26:28;;;;;;;3.60;3.30;;;;;;;12.41;80.55;98768.59;4997601;28;103646;-70
2023/05/13 05:28:56;;;;;;;3.43;3.13;;;;;;;12.47;80.98;98773.41;4991641;28;103173;-70
2023/05/13 05:31:25;;;;;;;3.83;3.53;;;;;;;12.58;81.32;98781.34;5008377;28;103232;-71
2023/05/13 05:33:56;;;;;;;3.73;2.93;;;;;;;12.58;80.43;98770.75;4994339;28;102963;-71
2023/05/13 05:36:24;;;;;;;3.50;3.20;;;;;;;12.75;80.43;98775.56;4997620;28;104359;-71
2023/05/13 05:38:51;;;;;;;3.73;3.43;;;;;;;12.94;79.32;98783.72;5001176;28;103208;-71
2023/05/13 05:41:21;;;;;;;3.70;3.40;;;;;;;12.61;80.13;98789.06;5008176;28;102628;-71
2023/05/13 05:43:49;;;;;;;3.43;3.13;;;;;;;12.66;79.46;98785.09;4988670;28;102708;-71
2023/05/13 05:46:19;;;;;;;3.47;3.17;;;;;;;12.93;78.46;98783.84;4995029;28;102701;-70
2023/05/13 05:48:50;;;;;;;4.27;3.87;;;;;;;12.68;79.48;98787.63;4995960;28;103145;-74
2023/05/13 05:51:19;;;;;;;6.27;3.77;;;;;;;12.65;79.59;98787.88;4989012;28;102740;-69
2023/05/13 05:53:58;;;;;;;4.33;3.33;;;;;;;12.66;80.17;98789.53;4983127;28;102906;-69
2023/05/13 05:56:33;;;;;;;5.70;3.70;;;;;;;12.42;80.77;98788.84;4990909;27;105209;-74
2023/05/13 05:59:01;;;;;;;3.93;3.53;;;;;;;12.29;80.66;98796.91;4992361;28;106587;-74
2023/05/13 06:01:32;;;;;;;3.90;3.53;;;;;;;12.53;80.31;98794.13;4999980;28;103274;-74
2023/05/13 06:04:00;;;;;;;5.83;3.53;;;;;;;12.36;80.38;98797.25;5002363;28;102734;-73
2023/05/13 06:06:31;;;;;;;3.67;3.10;;;;;;;12.27;81.38;98798.81;4999811;28;103399;-72
2023/05/13 06:09:02;;;;;;;4.80;3.47;;;;;;;12.13;81.40;98802.53;4998598;28;104144;-70
2023/05/13 06:11:30;;;;;;;3.73;3.43;;;;;;;12.05;82.77;98802.28;4994367;28;102813;-71
2023/05/13 06:13:58;;;;;;;4.77;3.70;;;;;;;12.04;82.43;98803.22;5004726;28;102707;-71
2023/05/13 06:16:27;;;;;;;4.37;3.97;;;;;;;12.58;81.84;98797.25;4995337;28;106234;-74
2023/05/13 06:18:55;;;;;;;7.33;3.60;;;;;;;12.08;80.76;98810.00;5009608;28;103120;-74
2023/05/13 06:21:23;;;;;;;4.73;3.70;;;;;;;12.00;81.90;98807.09;5000443;28;102814;-73
2023/05/13 06:23:52;;;;;;;3.70;3.40;;;;;;;11.97;82.89;98802.03;5002804;28;102691;-74
2023/05/13 06:26:21;;;;;;;4.60;3.60;;;;;;;11.98;81.67;98801.06;5005513;28;103202;-75
2023/05/13 06:28:49;;;;;;;3.57;3.27;;;;;;;12.42;80.62;98791.47;5004890;28;110515;-76
2023/05/13 06:31:17;;;;;;;3.90;3.60;;;;;;;12.58;80.19;98791.94;4995964;28;102722;-73
2023/05/13 06:33:46;;;;;;;3.47;3.17;;;;;;;12.38;81.59;98800.66;4993376;28;103009;-71
2023/05/13 06:36:14;;;;;;;4.17;3.40;;;;;;;12.98;79.63;98805.53;4983615;28;112726;-70
2023/05/13 06:38:42;;;;;;;4.70;4.30;;;;;;;12.68;79.51;98803.53;5001319;28;103060;-71
2023/05/13 06:41:14;;;;;;;5.10;4.60;;;;;;;12.54;80.66;98806.44;4996912;28;102977;-71
2023/05/13 06:43:44;;;;;;;5.20;3.50;;;;;;;12.27;82.17;98806.75;4993337;28;102809;-71
2023/05/13 06:46:20;;;;;;;4.87;3.57;;;;;;;12.27;81.98;98811.25;4971575;28;105940;-71
2023/05/13 06:48:51;;;;;;;4.27;3.87;;;;;;;12.41;80.48;98809.19;4989896;28;112589;-71
2023/05/13 06:51:19;;;;;;;5.53;3.80;;;;;;;12.70;80.15;98807.75;4984375;28;103088;-71
2023/05/13 06:53:47;;;;;;;5.27;4.20;;;;;;;12.76;79.56;98809.91;5007768;28;102723;-69
2023/05/13 06:56:16;;;;;;;3.63;3.33;;;;;;;13.43;77.83;98799.19;5009553;28;103188;-72
2023/05/13 06:58:44;;;;;;;4.53;2.83;;;;;;;13.13;78.82;98805.19;4986838;28;103117;-69
2023/05/13 07:01:12;;;;;;;5.07;3.30;;;;;;;13.51;76.96;98811.81;4998178;28;102623;-72
2023/05/13 07:03:40;;;;;;;4.03;3.00;;;;;;;13.47;78.81;98813.06;4976655;28;106287;-73
2023/05/13 07:06:08;;;;;;;4.67;3.20;;;;;;;13.29;77.06;98815.41;4986770;28;110261;-73
2023/05/13 07:08:46;;;;;;;6.07;3.37;;;;;;;12.26;80.94;98815.69;5001021;28;103270;-73
2023/05/13 07:11:16;;;;;;;4.50;3.70;;;;;;;12.32;81.47;98822.31;4999779;28;106392;-72
2023/05/13 07:13:44;;;;;;;3.80;3.30;;;;;;;12.87;80.69;98814.34;4998207;28;102637;-73
2023/05/13 07:16:12;;;;;;;3.67;3.37;;;;;;;12.65;79.71;98817.03;4999911;28;103013;-73
2023/05/13 07:18:39;;;;;;;4.23;3.90;;;;;;;11.91;80.60;98814.88;5000450;28;103025;-72
2023/05/13 07:21:07;;;;;;;4.53;4.00;;;;;;;12.33;81.26;98811.59;5004442;28;102783;-72
2023/05/13 07:23:35;;;;;;;4.03;3.73;;;;;;;11.98;82.55;98818.75;5003968;28;103108;-72
2023/05/13 07:26:03;;;;;;;3.77;3.40;;;;;;;12.18;82.31;98823.38;4989318;28;103346;-73
2023/05/13 07:28:33;;;;;;;3.67;3.00;;;;;;;12.74;80.54;98818.97;4981727;28;109285;-73
2023/05/13 07:31:01;;;;;;;5.57;3.57;;;;;;;13.12;79.80;98829.19;4989323;28;103478;-73
2023/05/13 07:33:29;;;;;;;3.60;3.30;;;;;;;13.16;80.08;98814.72;4998998;28;104658;-73
2023/05/13 07:35:56;;;;;;;3.90;3.53;;;;;;;13.46;77.46;98814.84;4987180;28;116767;-73
2023/05/13 07:38:24;;;;;;;3.67;3.30;;;;;;;13.64;78.12;98820.47;4988573;28;107354;-73
2023/05/13 07:40:52;;;;;;;5.13;3.50;;;;;;;12.88;79.42;98816.06;4999967;28;102761;-72
2023/05/13 07:43:22;;;;;;;4.23;3.47;;;;;;;12.74;79.86;98818.97;5004968;28;103960;-73
2023/05/13 07:45:52;;;;;;;4.17;3.40;;;;;;;12.58;79.61;98819.31;5003533;28;113405;-73
2023/05/13 07:48:20;;;;;;;3.63;3.33;;;;;;;12.71;80.09;98819.19;4985674;28;104137;-73
2023/05/13 07:50:47;;;;;;;3.97;3.60;;;;;;;13.40;78.10;98820.66;5001534;28;103024;-73
2023/05/13 07:53:16;;;;;;;3.60;3.30;;;;;;;13.06;78.58;98824.31;5002616;28;103601;-73
2023/05/13 07:55:46;;;;;;;4.10;3.13;;;;;;;13.39;78.98;98820.81;5004743;28;103305;-72
2023/05/13 07:58:14;;;;;;;3.87;3.47;;;;;;;13.22;78.99;98820.34;5004771;28;103116;-72
2023/05/13 08:00:42;;;;;;;4.07;3.67;;;;;;;13.02;79.63;98818.44;5008342;28;102568;-71
2023/05/13 08:03:11;;;;;;;3.90;3.50;;;;;;;12.50;80.35;98820.88;5003625;28;102638;-71
2023/05/13 08:05:39;;;;;;;4.93;3.73;;;;;;;13.28;80.23;98825.16;4989647;28;103487;-71
2023/05/13 08:08:07;;;;;;;5.93;4.10;;;;;;;13.32;80.14;98820.44;5006922;28;103602;-71
2023/05/13 08:10:35;;;;;;;4.77;4.37;;;;;;;12.62;82.28;98820.75;5004608;28;102612;-72
2023/05/13 08:13:03;;;;;;;4.57;4.17;;;;;;;12.66;81.05;98821.34;5004712;28;103878;-71
2023/05/13 08:15:31;;;;;;;4.73;4.33;;;;;;;12.71;81.80;98825.34;5008270;28;105833;-74
2023/05/13 08:17:59;;;;;;;4.57;4.17;;;;;;;12.77;82.44;98830.13;4992397;28;108373;-71
2023/05/13 08:20:29;;;;;;;4.50;4.07;;;;;;;13.05;81.25;98834.09;4992529;28;103788;-72
2023/05/13 08:22:57;;;;;;;3.80;3.20;;;;;;;13.58;80.17;98836.91;4999985;28;104212;-72
2023/05/13 08:25:31;;;;;;;5.83;4.23;;;;;;;13.36;80.79;98835.97;5011555;28;103514;-71
2023/05/13 08:27:59;;;;;;;4.40;4.03;;;;;;;13.54;79.25;98824.84;4995503;28;102713;-72
2023/05/13 08:30:27;;;;;;;4.30;3.90;;;;;;;12.83;79.92;98831.47;4989314;28;102708;-70
2023/05/13 08:32:58;;;;;;;4.90;3.40;;;;;;;13.18;79.30;98832.19;5009754;28;102666;-71
2023/05/13 08:35:31;;;;;;;4.10;3.70;;;;;;;12.78;79.56;98834.50;4998203;28;103319;-73
2023/05/13 08:38:02;;;;;;;6.53;4.03;;;;;;;13.33;78.62;98838.06;5002246;28;103059;-71
2023/05/13 08:40:30;;;;;;;5.00;4.50;;;;;;;13.53;78.57;98836.44;5001892;28;102562;-73
2023/05/13 08:43:01;;;;;;;4.30;3.27;;;;;;;13.43;78.03;98838.16;4996262;28;102669;-70
2023/05/13 08:45:30;;;;;;;5.20;4.20;;;;;;;13.53;76.73;98834.59;5002918;28;103288;-70
2023/05/13 08:48:00;;;;;;;4.53;3.70;;;;;;;13.53;78.80;98839.09;4986987;28;103282;-70
2023/05/13 08:50:31;;;;;;;3.90;3.60;;;;;;;13.55;77.16;98842.47;5005732;28;102975;-70
2023/05/13 08:53:03;;;;;;;5.40;4.00;;;;;;;13.50;77.99;98849.97;5007817;28;102762;-70
2023/05/13 08:55:31;;;;;;;5.30;3.53;;;;;;;13.39;78.89;98839.38;4993641;28;103560;-71
2023/05/13 08:57:59;;;;;;;4.13;3.40;;;;;;;13.49;78.26;98849.13;5004167;28;103679;-72
2023/05/13 09:00:29;;;;;;;3.40;3.10;;;;;;;13.91;76.25;98844.72;5005903;28;102912;-73
2023/05/13 09:02:57;;;;;;;3.70;3.40;;;;;;;13.48;77.35;98847.41;4997063;28;102712;-73
2023/05/13 09:05:25;;;;;;;3.87;3.40;;;;;;;13.62;77.74;98843.63;5011969;28;103385;-72
2023/05/13 09:07:56;;;;;;;3.80;3.50;;;;;;;13.68;78.25;98848.44;5001114;28;104291;-74
2023/05/13 09:10:24;;;;;;;3.80;3.40;;;;;;;14.04;76.44;98850.69;4982708;28;102659;-74
2023/05/13 09:12:53;;;;;;;4.53;3.30;;;;;;;14.50;74.79;98840.53;4991847;28;102919;-74
2023/05/13 09:15:23;;;;;;;3.60;3.30;;;;;;;14.54;74.24;98842.94;5001640;28;103465;-74
2023/05/13 09:17:55;;;;;;;4.33;3.20;;;;;;;14.07;75.76;98837.16;5007047;28;103143;-74
2023/05/13 09:20:25;;;;;;;3.57;3.27;;;;;;;14.01;76.14;98836.84;5010329;28;103003;-73
2023/05/13 09:23:07;;;;;;;3.80;3.50;;;;;;;13.63;76.07;98845.31;4993955;28;102939;-72
2023/05/13 09:25:37;;;;;;;4.17;3.50;;;;;;;14.36;74.24;98834.72;5003925;28;102735;-72
2023/05/13 09:28:08;;;;;;;4.87;3.63;;;;;;;13.78;76.42;98844.06;4988411;28;104810;-74
2023/05/13 09:30:39;;;;;;;4.13;3.70;;;;;;;13.94;76.00;98840.00;5000878;28;102901;-74
2023/05/13 09:33:08;;;;;;;3.97;3.60;;;;;;;14.03;75.65;98833.06;5004227;28;102721;-74
2023/05/13 09:35:39;;;;;;;3.90;3.30;;;;;;;14.48;74.46;98823.84;5002630;28;103397;-73
2023/05/13 09:38:17;;;;;;;3.97;3.50;;;;;;;14.15;74.02;98831.16;4992764;28;103199;-72
2023/05/13 09:40:53;;;;;;;4.47;3.70;;;;;;;14.17;74.83;98832.75;4983476;28;102766;-76
2023/05/13 09:43:25;;;;;;;4.37;3.97;;;;;;;14.86;72.19;98833.84;4981480;28;102635;-74
2023/05/13 09:45:54;;;;;;;3.30;3.10;;;;;;;14.74;73.42;98831.38;4996277;28;106752;-74
2023/05/13 09:48:25;;;;;;;3.60;3.30;;;;;;;14.76;73.73;98837.44;4993287;28;114550;-72
2023/05/13 09:50:56;;;;;;;3.80;3.50;;;;;;;14.47;74.49;98832.81;5003726;28;102703;-71
2023/05/13 09:53:27;;;;;;;3.50;3.20;;;;;;;14.60;74.55;98832.59;4997043;28;102869;-72
2023/05/13 09:55:58;;;;;;;3.17;2.87;;;;;;;15.00;73.36;98841.44;4987991;28;106292;-74
2023/05/13 09:58:27;;;;;;;4.30;3.33;;;;;;;15.38;72.62;98839.88;5003071;28;104051;-75
2023/05/13 10:00:56;;;;;;;4.33;3.40;;;;;;;14.79;74.41;98840.66;5003813;28;102741;-74
2023/05/13 10:03:25;;;;;;;4.17;3.80;;;;;;;14.46;75.33;98847.06;5007219;28;103132;-74
2023/05/13 10:05:56;;;;;;;3.70;3.40;;;;;;;15.00;74.39;98845.91;5001981;28;103377;-72
2023/05/13 10:08:27;;;;;;;5.83;3.50;;;;;;;14.53;74.55;98852.72;4978584;28;104085;-74
2023/05/13 10:10:56;;;;;;;3.73;3.43;;;;;;;14.21;76.12;98854.56;4997417;28;102754;-76
2023/05/13 10:13:25;;;;;;;4.67;3.60;;;;;;;14.15;75.95;98855.94;4991781;28;102756;-71
2023/05/13 10:15:54;;;;;;;4.20;3.73;;;;;;;14.26;75.64;98855.88;4988678;28;112566;-71
2023/05/13 10:18:23;;;;;;;5.60;3.63;;;;;;;14.50;76.42;98856.47;4982941;28;108072;-71
2023/05/13 10:20:52;;;;;;;3.63;3.33;;;;;;;14.65;75.72;98853.47;5004791;28;103069;-71
2023/05/13 10:23:22;;;;;;;9.10;4.47;;;;;;;14.57;76.34;98850.66;5008293;28;102694;-71
2023/05/13 10:25:54;;;;;;;5.07;4.03;;;;;;;14.32;76.64;98849.22;5004886;28;103558;-70
2023/05/13 10:28:21;;;;;;;4.50;4.00;;;;;;;14.39;76.40;98856.56;5007217;28;103310;-69
2023/05/13 10:30:52;;;;;;;4.10;3.73;;;;;;;14.69;75.79;98853.06;5007556;28;103252;-70
2023/05/13 10:33:21;;;;;;;5.43;4.07;;;;;;;14.57;75.35;98848.00;5005052;28;102801;-70
2023/05/13 10:36:01;;;;;;;4.17;3.83;;;;;;;14.62;76.01;98843.97;4994546;28;104193;-71
2023/05/13 10:38:44;;;;;;;4.83;4.40;;;;;;;14.95;74.75;98849.00;4985827;28;103243;-70
2023/05/13 10:41:30;;;;;;;4.27;3.93;;;;;;;15.29;74.28;98846.84;5013387;28;102767;-73
2023/05/13 10:43:59;;;;;;;3.93;3.60;;;;;;;14.90;76.41;98847.72;5001878;28;102845;-70
2023/05/13 10:46:27;;;;;;;4.00;3.60;;;;;;;15.06;74.98;98850.69;5000610;28;103519;-68
2023/05/13 10:48:58;;;;;;;4.73;4.13;;;;;;;14.71;76.19;98845.78;4997364;28;113372;-69
2023/05/13 10:51:26;;;;;;;4.50;4.10;;;;;;;14.66;76.69;98848.00;5000126;28;102703;-68
2023/05/13 10:53:57;;;;;;;3.93;3.53;;;;;;;14.31;76.66;98844.88;5003749;28;102719;-69
2023/05/13 10:56:28;;;;;;;3.53;3.23;;;;;;;14.39;76.16;98851.25;4973196;28;105262;-70
2023/05/13 10:59:01;;;;;;;4.20;3.80;;;;;;;14.13;78.55;98852.56;4985684;28;105948;-69
2023/05/13 11:01:34;;;;;;;4.30;3.90;;;;;;;14.16;78.16;98849.66;4988367;28;103160;-71
2023/05/13 11:04:05;;;;;;;4.00;3.70;;;;;;;14.58;77.83;98844.34;5002956;28;103800;-70
2023/05/13 11:06:34;;;;;;;4.80;3.70;;;;;;;14.46;77.74;98844.41;5012558;27;105316;-70
2023/05/13 11:09:05;;;;;;;4.17;3.87;;;;;;;14.48;75.03;98847.78;4989186;28;105485;-69
2023/05/13 11:11:36;;;;;;;4.00;3.60;;;;;;;14.47;76.46;98843.44;5009095;28;103050;-71
2023/05/13 11:14:25;;;;;;;4.43;3.37;;;;;;;15.71;73.83;98847.50;4977888;28;102767;-69
2023/05/13 11:16:55;;;;;;;5.83;3.10;;;;;;;16.18;71.43;98840.47;5000557;28;103565;-70
2023/05/13 11:19:26;;;;;;;4.03;3.67;;;;;;;15.55;72.82;98842.72;4988466;28;112684;-70
2023/05/13 11:21:56;;;;;;;3.10;2.90;;;;;;;15.52;72.15;98831.50;4992177;28;102935;-70
2023/05/13 11:24:24;;;;;;;3.30;3.00;;;;;;;14.47;74.67;98843.44;4968966;28;102783;-70
2023/05/13 11:26:57;;;;;;;3.93;3.03;;;;;;;14.66;75.46;98836.53;4999950;28;103297;-71
2023/05/13 11:29:30;;;;;;;3.57;3.03;;;;;;;15.09;74.97;98834.47;4994904;28;103248;-70
2023/05/13 11:31:59;;;;;;;3.50;3.20;;;;;;;14.76;75.77;98840.09;4976208;28;103045;-71
2023/05/13 11:34:31;;;;;;;4.33;3.30;;;;;;;15.10;75.75;98831.66;4981300;28;102702;-70
2023/05/13 11:37:12;;;;;;;4.77;3.77;;;;;;;14.67;76.24;98840.88;4979208;28;105503;-69